createdAt,value
2022-07-25T00:02:20.761Z,96471.88
2022-07-25T00:04:49.357Z,96466.31
2022-07-25T00:07:17.451Z,96466.88
2022-07-25T00:09:45.539Z,96458.97
2022-07-25T00:12:14.087Z,96461.25
2022-07-25T00:14:43.321Z,96464.13
2022-07-25T00:17:11.284Z,96470.09
2022-07-25T00:19:39.568Z,96461.78
2022-07-25T00:22:07.871Z,96474.16
2022-07-25T00:24:36.685Z,96473.91
2022-07-25T00:27:04.597Z,96471.78
2022-07-25T00:29:32.483Z,96471.09
2022-07-25T00:32:01.675Z,96466.28
2022-07-25T00:34:29.604Z,96472.19
2022-07-25T00:36:57.481Z,96473.00
2022-07-25T00:39:25.406Z,96467.63
2022-07-25T00:41:53.318Z,96458.94
2022-07-25T00:44:25.619Z,96458.75
2022-07-25T00:46:53.656Z,96462.63
2022-07-25T00:49:23.059Z,96463.47
2022-07-25T00:51:51.224Z,96461.81
2022-07-25T00:54:19.604Z,96467.19
2022-07-25T00:56:48.392Z,96456.84
2022-07-25T00:59:17.138Z,96460.34
2022-07-25T01:01:48.072Z,96456.50
2022-07-25T01:04:17.054Z,96455.09
2022-07-25T01:06:46.896Z,96451.19
2022-07-25T01:09:15.407Z,96454.72
2022-07-25T01:11:43.583Z,96441.47
2022-07-25T01:14:11.572Z,96446.78
2022-07-25T01:16:41.021Z,96450.50
2022-07-25T01:19:09.059Z,96443.66
2022-07-25T01:21:41.245Z,96443.66
2022-07-25T01:24:10.558Z,96444.13
2022-07-25T01:26:39.119Z,96437.97
2022-07-25T01:29:07.150Z,96441.97
2022-07-25T01:31:35.117Z,96435.28
2022-07-25T01:34:03.653Z,96440.66
2022-07-25T01:36:31.856Z,96435.66
2022-07-25T01:39:01.187Z,96438.50
2022-07-25T01:41:29.036Z,96439.56
2022-07-25T01:43:56.959Z,96436.72
2022-07-25T01:46:24.935Z,96428.50
2022-07-25T01:48:52.936Z,96427.84
2022-07-25T01:51:20.977Z,96428.69
2022-07-25T01:53:49.654Z,96423.88
2022-07-25T01:56:20.836Z,96432.56
2022-07-25T01:58:50.433Z,96422.41
2022-07-25T02:01:19.470Z,96425.56
2022-07-25T02:03:49.956Z,96415.56
2022-07-25T02:06:19.345Z,96414.00
2022-07-25T02:08:47.320Z,96414.00
2022-07-25T02:11:16.008Z,96415.22
2022-07-25T02:13:45.304Z,96415.22
2022-07-25T02:16:13.240Z,96403.78
2022-07-25T02:18:42.276Z,96405.59
2022-07-25T02:21:14.047Z,96402.66
2022-07-25T02:23:42.975Z,96394.63
2022-07-25T02:26:11.506Z,96387.94
2022-07-25T02:28:39.533Z,96393.13
2022-07-25T02:31:09.459Z,96402.22
2022-07-25T02:33:38.172Z,96404.19
2022-07-25T02:36:06.625Z,96397.97
2022-07-25T02:38:34.530Z,96390.50
2022-07-25T02:41:02.469Z,96393.09
2022-07-25T02:43:31.013Z,96386.03
2022-07-25T02:45:59.013Z,96400.56
2022-07-25T02:48:28.394Z,96392.25
2022-07-25T02:50:56.603Z,96384.38
2022-07-25T02:53:46.786Z,96390.31
2022-07-25T02:56:12.386Z,96385.47
2022-07-25T02:58:42.127Z,96383.63
2022-07-25T03:01:10.100Z,96392.22
2022-07-25T03:03:39.387Z,96392.22
2022-07-25T03:06:07.626Z,96393.00
2022-07-25T03:08:35.572Z,96388.63
2022-07-25T03:11:03.628Z,96388.63
2022-07-25T03:13:33.113Z,96387.97
2022-07-25T03:16:01.396Z,96380.97
2022-07-25T03:18:29.328Z,96381.34
2022-07-25T03:20:58.611Z,96375.22
2022-07-25T03:23:27.347Z,96376.63
2022-07-25T03:25:55.611Z,96368.94
2022-07-25T03:28:24.609Z,96376.16
2022-07-25T03:30:53.016Z,96367.28
2022-07-25T03:33:21.260Z,96371.91
2022-07-25T03:35:49.362Z,96359.69
2022-07-25T03:38:18.762Z,96360.06
2022-07-25T03:40:46.722Z,96361.94
2022-07-25T03:43:14.776Z,96360.41
2022-07-25T03:45:42.893Z,96370.88
2022-07-25T03:48:10.832Z,96361.19
2022-07-25T03:50:38.740Z,96352.50
2022-07-25T03:53:06.636Z,96347.13
2022-07-25T03:55:40.666Z,96341.59
2022-07-25T03:58:08.687Z,96344.44
2022-07-25T04:00:36.957Z,96340.72
2022-07-25T04:03:05.022Z,96337.88
2022-07-25T04:05:32.919Z,96340.19
2022-07-25T04:08:00.837Z,96340.09
2022-07-25T04:10:28.953Z,96339.09
2022-07-25T04:12:58.161Z,96336.69
2022-07-25T04:15:26.194Z,96339.47
2022-07-25T04:17:54.031Z,96335.09
2022-07-25T04:20:23.313Z,96325.94
2022-07-25T04:22:51.164Z,96332.69
2022-07-25T04:25:19.041Z,96332.34
2022-07-25T04:27:46.886Z,96331.13
2022-07-25T04:30:24.421Z,96332.44
2022-07-25T04:32:53.498Z,96335.47
2022-07-25T04:35:21.787Z,96327.63
2022-07-25T04:37:50.215Z,96340.66
2022-07-25T04:40:18.208Z,96341.88
2022-07-25T04:42:46.052Z,96344.34
2022-07-25T04:45:14.103Z,96338.63
2022-07-25T04:48:10.462Z,96339.81
2022-07-25T04:50:38.433Z,96336.75
2022-07-25T04:53:06.809Z,96334.34
2022-07-25T04:55:36.220Z,96342.47
2022-07-25T04:58:04.116Z,96333.22
2022-07-25T05:00:32.444Z,96332.47
2022-07-25T05:03:00.627Z,96320.56
2022-07-25T05:05:29.898Z,96330.56
2022-07-25T05:07:59.344Z,96334.72
2022-07-25T05:10:28.307Z,96332.84
2022-07-25T05:12:56.413Z,96326.53
2022-07-25T05:15:24.862Z,96327.66
2022-07-25T05:17:52.765Z,96328.72
2022-07-25T05:20:20.844Z,96320.94
2022-07-25T05:22:50.289Z,96319.16
2022-07-25T05:25:18.315Z,96313.59
2022-07-25T05:27:46.779Z,96314.50
2022-07-25T05:30:15.673Z,96315.19
2022-07-25T05:32:43.662Z,96308.41
2022-07-25T05:35:12.008Z,96306.00
2022-07-25T05:37:39.997Z,96316.78
2022-07-25T05:40:09.780Z,96311.47
2022-07-25T05:42:37.767Z,96308.94
2022-07-25T05:45:06.631Z,96307.13
2022-07-25T05:47:34.538Z,96301.81
2022-07-25T05:50:03.149Z,96308.06
2022-07-25T05:52:31.043Z,96310.56
2022-07-25T05:54:58.886Z,96303.19
2022-07-25T05:57:28.318Z,96291.66
2022-07-25T05:59:56.180Z,96294.81
2022-07-25T06:02:24.608Z,96286.78
2022-07-25T06:04:52.566Z,96290.16
2022-07-25T06:07:20.469Z,96280.72
2022-07-25T06:09:48.376Z,96274.38
2022-07-25T06:12:16.330Z,96283.91
2022-07-25T06:14:45.615Z,96279.78
2022-07-25T06:17:13.533Z,96275.03
2022-07-25T06:19:41.515Z,96275.06
2022-07-25T06:22:09.620Z,96272.81
2022-07-25T06:24:37.495Z,96279.25
2022-07-25T06:27:05.801Z,96275.75
2022-07-25T06:29:33.784Z,96275.56
2022-07-25T06:32:03.102Z,96282.59
2022-07-25T06:34:31.067Z,96274.09
2022-07-25T06:36:59.407Z,96282.19
2022-07-25T06:39:28.131Z,96268.53
2022-07-25T06:41:56.076Z,96274.31
2022-07-25T06:44:27.712Z,96275.56
2022-07-25T06:46:55.681Z,96270.78
2022-07-25T06:49:25.101Z,96281.16
2022-07-25T06:51:53.015Z,96270.13
2022-07-25T06:54:21.115Z,96276.38
2022-07-25T06:56:49.250Z,96269.72
2022-07-25T06:59:17.147Z,96263.88
2022-07-25T07:01:49.506Z,96265.28
2022-07-25T07:04:19.471Z,96270.44
2022-07-25T07:06:48.643Z,96260.84
2022-07-25T07:09:16.573Z,96263.09
2022-07-25T07:11:44.531Z,96260.53
2022-07-25T07:14:12.453Z,96267.78
2022-07-25T07:16:41.355Z,96267.16
2022-07-25T07:19:11.011Z,96261.69
2022-07-25T07:21:38.991Z,96257.59
2022-07-25T07:24:24.076Z,96256.94
2022-07-25T07:26:53.460Z,96255.19
2022-07-25T07:29:21.707Z,96255.38
2022-07-25T07:31:49.735Z,96253.47
2022-07-25T07:34:17.680Z,96248.19
2022-07-25T07:36:45.654Z,96250.97
2022-07-25T07:39:16.518Z,96248.44
2022-07-25T07:41:45.171Z,96251.44
2022-07-25T07:44:13.047Z,96244.16
2022-07-25T07:46:41.010Z,96251.16
2022-07-25T07:49:09.357Z,96244.84
2022-07-25T07:51:37.727Z,96243.13
2022-07-25T07:54:23.883Z,96237.19
2022-07-25T07:56:53.268Z,96238.81
2022-07-25T07:59:22.011Z,96236.16
2022-07-25T08:01:49.968Z,96237.66
2022-07-25T08:04:17.867Z,96238.84
2022-07-25T08:06:45.743Z,96238.19
2022-07-25T08:09:13.901Z,96236.88
2022-07-25T08:11:41.794Z,96227.41
2022-07-25T08:14:11.048Z,96238.50
2022-07-25T08:16:39.025Z,96236.25
2022-07-25T08:19:07.196Z,96236.72
2022-07-25T08:21:35.132Z,96233.44
2022-07-25T08:24:03.171Z,96241.00
2022-07-25T08:26:33.859Z,96234.41
2022-07-25T08:29:18.289Z,96242.56
2022-07-25T08:31:48.795Z,96245.41
2022-07-25T08:34:16.767Z,96236.16
2022-07-25T08:36:44.636Z,96244.31
2022-07-25T08:39:13.420Z,96242.41
2022-07-25T08:41:42.245Z,96241.47
2022-07-25T08:44:10.787Z,96239.81
2022-07-25T08:46:41.535Z,96243.84
2022-07-25T08:49:11.575Z,96251.50
2022-07-25T08:51:40.934Z,96238.63
2022-07-25T08:54:10.182Z,96243.72
2022-07-25T08:56:38.379Z,96238.63
2022-07-25T08:59:06.361Z,96240.50
2022-07-25T09:01:35.050Z,96241.72
2022-07-25T09:04:05.358Z,96241.44
2022-07-25T09:06:34.995Z,96230.44
2022-07-25T09:09:04.948Z,96229.41
2022-07-25T09:11:34.666Z,96230.09
2022-07-25T09:14:06.027Z,96216.97
2022-07-25T09:16:40.128Z,96214.47
2022-07-25T09:19:13.790Z,96213.03
2022-07-25T09:21:45.611Z,96210.38
2022-07-25T09:24:16.052Z,96208.19
2022-07-25T09:26:49.215Z,96205.47
2022-07-25T09:29:22.426Z,96198.13
2022-07-25T09:31:51.283Z,96207.56
2022-07-25T09:34:31.937Z,96214.66
2022-07-25T09:37:01.661Z,96208.13
2022-07-25T09:39:45.988Z,96200.56
2022-07-25T09:42:23.041Z,96196.94
2022-07-25T09:45:06.656Z,96209.66
2022-07-25T09:47:37.066Z,96197.38
2022-07-25T09:50:06.777Z,96192.41
2022-07-25T09:52:36.758Z,96194.81
2022-07-25T09:55:06.570Z,96194.72
2022-07-25T09:57:34.521Z,96190.09
2022-07-25T10:00:02.878Z,96195.41
2022-07-25T10:02:49.777Z,96185.78
2022-07-25T10:05:26.831Z,96188.81
2022-07-25T10:07:56.780Z,96181.41
2022-07-25T10:10:30.692Z,96173.31
2022-07-25T10:13:07.827Z,96177.22
2022-07-25T10:15:42.894Z,96174.81
2022-07-25T10:18:11.134Z,96170.00
2022-07-25T10:20:39.369Z,96182.59
2022-07-25T10:23:23.284Z,96162.25
2022-07-25T10:26:08.332Z,96171.63
2022-07-25T10:28:39.588Z,96171.38
2022-07-25T10:31:17.591Z,96161.53
2022-07-25T10:33:49.808Z,96155.09
2022-07-25T10:36:18.315Z,96153.50
2022-07-25T10:38:47.795Z,96164.91
2022-07-25T10:41:17.455Z,96152.44
2022-07-25T10:43:48.693Z,96153.50
2022-07-25T10:46:20.494Z,96150.53
2022-07-25T10:48:59.223Z,96151.25
2022-07-25T10:51:29.410Z,96144.97
2022-07-25T10:54:01.347Z,96148.44
2022-07-25T10:56:30.082Z,96148.03
2022-07-25T10:58:59.096Z,96152.91
2022-07-25T11:01:29.849Z,96143.47
2022-07-25T11:03:59.766Z,96137.22
2022-07-25T11:06:32.886Z,96134.84
2022-07-25T11:09:03.283Z,96133.75
2022-07-25T11:11:36.815Z,96141.75
2022-07-25T11:14:05.500Z,96132.91
2022-07-25T11:16:33.457Z,96145.00
2022-07-25T11:19:01.871Z,96142.75
2022-07-25T11:21:29.753Z,96135.19
2022-07-25T11:23:57.633Z,96128.94
2022-07-25T11:26:26.977Z,96133.84
2022-07-25T11:28:54.875Z,96141.25
2022-07-25T11:31:24.049Z,96131.38
2022-07-25T11:33:52.217Z,96113.09
2022-07-25T11:36:20.919Z,96115.63
2022-07-25T11:38:50.234Z,96118.31
2022-07-25T11:41:30.586Z,96117.56
2022-07-25T11:43:58.498Z,96112.63
2022-07-25T11:46:26.965Z,96123.56
2022-07-25T11:49:07.503Z,96115.13
2022-07-25T11:51:39.692Z,96103.94
2022-07-25T11:54:13.279Z,96109.75
2022-07-25T11:56:43.948Z,96110.00
2022-07-25T11:59:12.542Z,96115.47
2022-07-25T12:01:42.131Z,96112.13
2022-07-25T12:04:12.090Z,96112.44
2022-07-25T12:06:40.482Z,96113.59
2022-07-25T12:09:18.299Z,96105.41
2022-07-25T12:11:50.137Z,96104.59
2022-07-25T12:14:18.076Z,96101.06
2022-07-25T12:16:46.061Z,96092.59
2022-07-25T12:19:21.500Z,96084.41
2022-07-25T12:21:49.371Z,96097.56
2022-07-25T12:24:17.269Z,96095.91
2022-07-25T12:26:45.212Z,96099.72
2022-07-25T12:29:14.560Z,96093.72
2022-07-25T12:31:42.579Z,96080.59
2022-07-25T12:34:10.528Z,96086.31
2022-07-25T12:36:44.104Z,96081.38
2022-07-25T12:39:12.322Z,96087.94
2022-07-25T12:41:42.593Z,96089.00
2022-07-25T12:44:11.270Z,96098.03
2022-07-25T12:46:47.152Z,96095.28
2022-07-25T12:49:17.299Z,96091.47
2022-07-25T12:51:45.338Z,96091.47
2022-07-25T12:54:14.096Z,96091.22
2022-07-25T12:56:44.236Z,96089.84
2022-07-25T12:59:12.257Z,96092.84
2022-07-25T13:01:41.534Z,96093.69
2022-07-25T13:04:10.332Z,96086.00
2022-07-25T13:06:39.141Z,96090.44
2022-07-25T13:09:07.999Z,96084.13
2022-07-25T13:11:36.145Z,96084.66
2022-07-25T13:14:04.680Z,96081.66
2022-07-25T13:16:34.159Z,96074.81
2022-07-25T13:19:03.790Z,96081.66
2022-07-25T13:21:32.089Z,96080.56
2022-07-25T13:24:00.028Z,96085.78
2022-07-25T13:26:28.056Z,96086.84
2022-07-25T13:29:04.876Z,96085.50
2022-07-25T13:31:36.205Z,96078.13
2022-07-25T13:34:05.598Z,96077.00
2022-07-25T13:36:36.069Z,96085.50
2022-07-25T13:39:05.026Z,96083.03
2022-07-25T13:41:33.785Z,96095.91
2022-07-25T13:44:02.255Z,96091.78
2022-07-25T13:46:30.158Z,96075.63
2022-07-25T13:48:58.045Z,96086.00
2022-07-25T13:51:27.375Z,96089.00
2022-07-25T13:53:55.457Z,96089.81
2022-07-25T13:56:23.396Z,96088.16
2022-07-25T13:58:51.280Z,96082.69
2022-07-25T14:01:19.221Z,96083.78
2022-07-25T14:03:47.418Z,96094.44
2022-07-25T14:06:15.320Z,96091.38
2022-07-25T14:08:44.720Z,96098.22
2022-07-25T14:11:12.661Z,96101.47
2022-07-25T14:13:40.556Z,96096.81
2022-07-25T14:16:08.890Z,96095.72
2022-07-25T14:18:36.889Z,96094.06
2022-07-25T14:21:04.975Z,96091.31
2022-07-25T14:23:32.888Z,96093.22
2022-07-25T14:26:02.179Z,96086.41
2022-07-25T14:28:30.737Z,96089.38
2022-07-25T14:31:00.004Z,96082.88
2022-07-25T14:33:27.926Z,96084.78
2022-07-25T14:35:56.254Z,96085.56
2022-07-25T14:38:24.190Z,96070.03
2022-07-25T14:40:52.724Z,96070.06
2022-07-25T14:43:21.939Z,96078.06
2022-07-25T14:45:49.851Z,96071.25
2022-07-25T14:48:17.764Z,96069.06
2022-07-25T14:50:45.677Z,96064.41
2022-07-25T14:53:14.780Z,96064.97
2022-07-25T14:55:42.691Z,96063.03
2022-07-25T14:58:10.664Z,96067.72
2022-07-25T15:00:43.331Z,96069.88
2022-07-25T15:03:11.273Z,96068.25
2022-07-25T15:05:39.467Z,96071.81
2022-07-25T15:08:07.659Z,96080.00
2022-07-25T15:10:35.696Z,96079.72
2022-07-25T15:13:29.480Z,96072.88
2022-07-25T15:15:52.941Z,96068.25
2022-07-25T15:18:20.966Z,96064.69
2022-07-25T15:20:48.820Z,96063.06
2022-07-25T15:23:16.766Z,96071.81
2022-07-25T15:26:01.198Z,96063.06
2022-07-25T15:28:30.770Z,96061.44
2022-07-25T15:31:00.202Z,96057.34
2022-07-25T15:33:28.328Z,96070.19
2022-07-25T15:35:56.598Z,96060.91
2022-07-25T15:38:24.642Z,96084.66
2022-07-25T15:40:52.934Z,96078.19
2022-07-25T15:43:20.875Z,96080.88
2022-07-25T15:45:48.880Z,96084.56
2022-07-25T15:48:19.233Z,96090.56
2022-07-25T15:50:48.545Z,96093.19
2022-07-25T15:53:16.509Z,96086.84
2022-07-25T15:55:44.848Z,96077.69
2022-07-25T15:58:13.255Z,96079.94
2022-07-25T16:00:41.531Z,96066.16
2022-07-25T16:03:10.046Z,96069.38
2022-07-25T16:05:39.974Z,96077.25
2022-07-25T16:08:09.942Z,96078.81
2022-07-25T16:10:38.315Z,96086.13
2022-07-25T16:13:07.080Z,96090.66
2022-07-25T16:15:35.015Z,96086.31
2022-07-25T16:18:03.300Z,96096.56
2022-07-25T16:20:32.388Z,96087.38
2022-07-25T16:23:02.729Z,96098.28
2022-07-25T16:25:31.278Z,96102.03
2022-07-25T16:28:00.184Z,96096.78
2022-07-25T16:30:28.701Z,96082.84
2022-07-25T16:32:56.712Z,96091.88
2022-07-25T16:35:24.889Z,96088.41
2022-07-25T16:37:52.948Z,96083.53
2022-07-25T16:40:28.683Z,96085.47
2022-07-25T16:42:59.505Z,96082.97
2022-07-25T16:45:28.268Z,96088.72
2022-07-25T16:47:56.303Z,96083.06
2022-07-25T16:50:24.320Z,96090.75
2022-07-25T16:52:53.609Z,96095.69
2022-07-25T16:55:23.041Z,96092.38
2022-07-25T16:57:51.159Z,96093.50
2022-07-25T17:00:19.225Z,96086.41
2022-07-25T17:02:47.115Z,96091.03
2022-07-25T17:05:15.037Z,96088.84
2022-07-25T17:07:43.209Z,96091.78
2022-07-25T17:10:11.696Z,96100.47
2022-07-25T17:12:40.976Z,96101.72
2022-07-25T17:15:10.084Z,96109.06
2022-07-25T17:17:38.015Z,96098.41
2022-07-25T17:20:06.829Z,96095.38
2022-07-25T17:22:34.822Z,96101.06
2022-07-25T17:25:02.780Z,96094.47
2022-07-25T17:27:31.172Z,96088.59
2022-07-25T17:30:00.394Z,96103.56
2022-07-25T17:32:30.139Z,96108.19
2022-07-25T17:34:58.322Z,96104.59
2022-07-25T17:37:27.718Z,96105.88
2022-07-25T17:39:55.806Z,96109.22
2022-07-25T17:42:23.982Z,96115.94
2022-07-25T17:44:52.482Z,96109.09
2022-07-25T17:47:23.014Z,96114.97
2022-07-25T17:49:51.051Z,96118.44
2022-07-25T17:52:18.973Z,96117.72
2022-07-25T17:54:46.871Z,96126.25
2022-07-25T17:57:14.756Z,96131.88
2022-07-25T17:59:42.632Z,96130.34
2022-07-25T18:02:59.277Z,96129.72
2022-07-25T18:05:28.715Z,96128.44
2022-07-25T18:07:56.744Z,96139.56
2022-07-25T18:10:24.812Z,96144.63
2022-07-25T18:12:53.039Z,96151.44
2022-07-25T18:15:21.055Z,96156.31
2022-07-25T18:17:49.846Z,96156.56
2022-07-25T18:20:17.889Z,96159.56
2022-07-25T18:22:47.240Z,96165.00
2022-07-25T18:25:15.996Z,96170.56
2022-07-25T18:27:44.964Z,96173.09
2022-07-25T18:30:15.158Z,96186.97
2022-07-25T18:32:43.118Z,96193.59
2022-07-25T18:35:11.988Z,96190.44
2022-07-25T18:37:40.236Z,96200.03
2022-07-25T18:40:11.359Z,96205.00
2022-07-25T18:42:39.417Z,96206.41
2022-07-25T18:45:08.489Z,96211.97
2022-07-25T18:47:36.356Z,96209.59
2022-07-25T18:50:05.295Z,96222.25
2022-07-25T18:52:35.118Z,96222.34
2022-07-25T18:55:03.157Z,96225.66
2022-07-25T18:57:32.691Z,96228.00
2022-07-25T19:00:03.065Z,96240.34
2022-07-25T19:02:31.858Z,96250.38
2022-07-25T19:04:59.884Z,96244.47
2022-07-25T19:07:29.754Z,96250.03
2022-07-25T19:09:57.733Z,96245.69
2022-07-25T19:12:27.215Z,96255.72
2022-07-25T19:14:56.783Z,96271.94
2022-07-25T19:17:25.122Z,96272.53
2022-07-25T19:19:53.795Z,96264.72
2022-07-25T19:22:21.887Z,96282.84
2022-07-25T19:24:49.789Z,96276.75
2022-07-25T19:27:18.149Z,96286.97
2022-07-25T19:29:46.059Z,96289.00
2022-07-25T19:32:17.974Z,96295.13
2022-07-25T19:34:46.293Z,96298.41
2022-07-25T19:37:14.256Z,96296.47
2022-07-25T19:39:42.218Z,96302.19
2022-07-25T19:42:12.170Z,96308.44
2022-07-25T19:44:40.636Z,96306.41
2022-07-25T19:47:11.605Z,96311.66
2022-07-25T19:49:41.534Z,96309.16
2022-07-25T19:52:10.951Z,96318.09
2022-07-25T19:54:39.172Z,96312.53
2022-07-25T19:57:07.313Z,96327.22
2022-07-25T19:59:35.392Z,96322.47
2022-07-25T20:02:04.137Z,96320.59
2022-07-25T20:04:32.236Z,96328.84
2022-07-25T20:07:02.329Z,96325.69
2022-07-25T20:09:30.464Z,96323.88
2022-07-25T20:11:58.758Z,96330.69
2022-07-25T20:14:26.659Z,96331.97
2022-07-25T20:16:54.669Z,96333.28
2022-07-25T20:19:22.601Z,96347.25
2022-07-25T20:21:50.752Z,96336.06
2022-07-25T20:24:21.667Z,96336.28
2022-07-25T20:26:50.013Z,96336.38
2022-07-25T20:29:18.194Z,96347.63
2022-07-25T20:31:46.640Z,96346.41
2022-07-25T20:34:15.873Z,96340.59
2022-07-25T20:36:47.396Z,96348.09
2022-07-25T20:39:15.317Z,96355.78
2022-07-25T20:41:44.832Z,96357.06
2022-07-25T20:44:13.156Z,96356.03
2022-07-25T20:46:41.036Z,96345.28
2022-07-25T20:49:09.723Z,96350.69
2022-07-25T20:51:40.479Z,96350.28
2022-07-25T20:54:08.467Z,96351.34
2022-07-25T20:56:36.356Z,96349.28
2022-07-25T20:59:05.967Z,96355.13
2022-07-25T21:01:34.107Z,96369.72
2022-07-25T21:04:07.006Z,96374.91
2022-07-25T21:06:35.441Z,96369.75
2022-07-25T21:09:06.051Z,96377.63
2022-07-25T21:11:35.552Z,96374.09
2022-07-25T21:14:05.685Z,96374.75
2022-07-25T21:16:34.561Z,96373.91
2022-07-25T21:19:02.481Z,96381.22
2022-07-25T21:21:30.501Z,96386.19
2022-07-25T21:23:58.360Z,96396.16
2022-07-25T21:26:26.375Z,96388.06
2022-07-25T21:28:54.310Z,96402.00
2022-07-25T21:31:23.824Z,96399.94
2022-07-25T21:33:51.735Z,96399.72
2022-07-25T21:36:19.659Z,96404.06
2022-07-25T21:38:47.789Z,96406.59
2022-07-25T21:41:16.154Z,96423.59
2022-07-25T21:43:44.245Z,96424.84
2022-07-25T21:46:12.295Z,96430.44
2022-07-25T21:48:59.255Z,96434.41
2022-07-25T21:51:36.767Z,96441.06
2022-07-25T21:54:09.128Z,96440.47
2022-07-25T21:56:37.496Z,96437.78
2022-07-25T21:59:06.478Z,96437.34
2022-07-25T22:01:34.714Z,96429.25
2022-07-25T22:04:04.104Z,96434.25
2022-07-25T22:06:32.064Z,96435.06
2022-07-25T22:08:59.971Z,96424.47
2022-07-25T22:11:42.408Z,96425.13
2022-07-25T22:14:14.469Z,96429.91
2022-07-25T22:16:42.394Z,96422.81
2022-07-25T22:19:11.921Z,96420.97
2022-07-25T22:21:40.516Z,96424.50
2022-07-25T22:24:09.195Z,96430.09
2022-07-25T22:26:37.713Z,96430.09
2022-07-25T22:29:06.076Z,96421.56
2022-07-25T22:31:34.268Z,96428.00
2022-07-25T22:34:02.223Z,96430.28
2022-07-25T22:36:31.591Z,96423.22
2022-07-25T22:38:59.448Z,96425.06
2022-07-25T22:41:27.736Z,96429.44
2022-07-25T22:43:57.788Z,96429.63
2022-07-25T22:46:28.031Z,96447.69
2022-07-25T22:48:56.049Z,96452.25
2022-07-25T22:51:24.143Z,96457.00
2022-07-25T22:53:53.440Z,96451.63
2022-07-25T22:56:21.775Z,96453.06
2022-07-25T22:58:49.774Z,96448.88
2022-07-25T23:01:17.870Z,96449.50
2022-07-25T23:03:45.995Z,96452.63
2022-07-25T23:06:14.115Z,96450.53
2022-07-25T23:08:42.029Z,96450.53
2022-07-25T23:11:11.282Z,96453.44
2022-07-25T23:13:39.228Z,96448.88
2022-07-25T23:16:10.171Z,96457.97
2022-07-25T23:18:38.946Z,96468.75
2022-07-25T23:21:07.358Z,96480.34
2022-07-25T23:23:35.409Z,96481.19
2022-07-25T23:26:04.448Z,96482.59
2022-07-25T23:28:33.680Z,96480.34
2022-07-25T23:31:01.595Z,96483.88
2022-07-25T23:33:30.214Z,96489.47
2022-07-25T23:35:58.245Z,96496.28
2022-07-25T23:38:26.385Z,96496.03
2022-07-25T23:40:54.812Z,96503.13
2022-07-25T23:43:40.834Z,96504.94
2022-07-25T23:46:12.002Z,96515.72
2022-07-25T23:48:40.008Z,96515.47
2022-07-25T23:51:08.517Z,96501.38
2022-07-25T23:53:37.131Z,96505.25
2022-07-25T23:56:05.517Z,96507.53
2022-07-25T23:58:33.429Z,96513.34
